createdAt,value
2019-02-04T00:00:39.933Z,29.60
2019-02-04T00:01:39.878Z,32.00
2019-02-04T00:02:39.856Z,28.10
2019-02-04T00:03:39.783Z,29.90
2019-02-04T00:04:39.779Z,30.40
2019-02-04T00:05:39.684Z,33.40
2019-02-04T00:06:39.739Z,28.90
2019-02-04T00:07:39.593Z,31.90
2019-02-04T00:08:39.552Z,32.40
2019-02-04T00:09:39.524Z,29.90
2019-02-04T00:10:39.456Z,30.00
2019-02-04T00:11:39.417Z,30.20
2019-02-04T00:12:39.345Z,28.90
2019-02-04T00:13:39.333Z,22.90
2019-02-04T00:14:39.260Z,23.20
2019-02-04T00:15:39.202Z,23.20
2019-02-04T00:16:40.874Z,26.10
2019-02-04T00:17:39.110Z,29.30
2019-02-04T00:18:39.093Z,33.10
2019-02-04T00:19:39.018Z,32.60
2019-02-04T00:20:38.972Z,29.40
2019-02-04T00:21:38.924Z,33.70
2019-02-04T00:22:38.874Z,33.60
2019-02-04T00:23:38.824Z,33.70
2019-02-04T00:24:38.796Z,32.80
2019-02-04T00:25:38.735Z,31.70
2019-02-04T00:26:38.679Z,32.80
2019-02-04T00:27:38.635Z,30.30
2019-02-04T00:28:38.591Z,33.90
2019-02-04T00:29:38.559Z,34.10
2019-02-04T00:30:38.488Z,35.40
2019-02-04T00:31:38.444Z,33.40
2019-02-04T00:32:38.396Z,30.00
2019-02-04T00:33:38.348Z,29.80
2019-02-04T00:34:38.330Z,24.70
2019-02-04T00:35:38.244Z,26.30
2019-02-04T00:36:38.196Z,31.90
2019-02-04T00:37:38.148Z,36.10
2019-02-04T00:38:38.103Z,37.60
2019-02-04T00:39:38.063Z,39.80
2019-02-04T00:40:38.044Z,35.90
2019-02-04T00:41:37.964Z,34.30
2019-02-04T00:42:37.919Z,36.80
2019-02-04T00:43:37.863Z,37.10
2019-02-04T00:44:37.816Z,36.40
2019-02-04T00:45:37.767Z,33.90
2019-02-04T00:46:37.747Z,35.70
2019-02-04T00:47:37.668Z,32.00
2019-02-04T00:48:37.620Z,32.50
2019-02-04T00:49:37.570Z,27.20
2019-02-04T00:50:37.542Z,28.10
2019-02-04T00:51:37.484Z,32.70
2019-02-04T00:52:37.439Z,33.10
2019-02-04T00:53:37.388Z,30.10
2019-02-04T00:54:37.345Z,28.40
2019-02-04T00:55:37.311Z,28.60
2019-02-04T00:56:37.236Z,27.10
2019-02-04T00:57:37.188Z,27.60
2019-02-04T00:58:37.140Z,27.90
2019-02-04T00:59:37.121Z,26.80
2019-02-04T01:00:37.046Z,30.50
2019-02-04T01:01:37.001Z,29.60
2019-02-04T01:02:36.949Z,30.10
2019-02-04T01:03:36.907Z,35.00
2019-02-04T01:04:36.856Z,32.70
2019-02-04T01:05:36.843Z,34.40
2019-02-04T01:06:36.764Z,35.50
2019-02-04T01:07:36.702Z,36.20
2019-02-04T01:08:36.657Z,38.20
2019-02-04T01:09:36.613Z,38.60
2019-02-04T01:10:36.565Z,37.30
2019-02-04T01:11:36.546Z,37.70
2019-02-04T01:12:36.501Z,35.80
2019-02-04T01:13:36.420Z,43.60
2019-02-04T01:14:36.379Z,41.90
2019-02-04T01:15:36.315Z,47.20
2019-02-04T01:16:36.270Z,48.50
2019-02-04T01:17:36.230Z,44.80
2019-02-04T01:18:36.219Z,43.60
2019-02-04T01:19:36.127Z,43.50
2019-02-04T01:20:36.076Z,40.90
2019-02-04T01:21:36.030Z,44.50
2019-02-04T01:22:35.981Z,39.90
2019-02-04T01:23:35.960Z,36.60
2019-02-04T01:24:35.890Z,37.90
2019-02-04T01:25:35.843Z,37.80
2019-02-04T01:26:35.796Z,36.10
2019-02-04T01:27:35.765Z,33.70
2019-02-04T01:28:35.718Z,34.50
2019-02-04T01:29:35.642Z,46.60
2019-02-04T01:30:35.591Z,43.50
2019-02-04T01:31:35.548Z,45.10
2019-02-04T01:32:35.500Z,37.90
2019-02-04T01:33:35.470Z,33.10
2019-02-04T01:34:35.397Z,35.00
2019-02-04T01:35:35.354Z,42.80
2019-02-04T01:36:35.390Z,44.20
2019-02-04T01:37:35.259Z,44.70
2019-02-04T01:38:35.245Z,43.70
2019-02-04T01:39:35.157Z,43.00
2019-02-04T01:40:35.111Z,46.30
2019-02-04T01:41:35.061Z,36.50
2019-02-04T01:42:35.011Z,40.60
2019-02-04T01:43:34.972Z,39.20
2019-02-04T01:44:34.948Z,36.10
2019-02-04T01:45:34.876Z,35.90
2019-02-04T01:46:34.826Z,43.10
2019-02-04T01:47:34.768Z,46.30
2019-02-04T01:48:34.742Z,47.60
2019-02-04T01:49:34.707Z,46.00
2019-02-04T01:50:34.635Z,44.90
2019-02-04T01:51:34.579Z,46.40
2019-02-04T01:52:34.527Z,41.80
2019-02-04T01:53:34.483Z,44.20
2019-02-04T01:54:34.435Z,42.00
2019-02-04T01:55:34.412Z,41.20
2019-02-04T01:56:34.366Z,42.00
2019-02-04T01:57:34.291Z,40.80
2019-02-04T01:58:34.249Z,42.80
2019-02-04T01:59:34.190Z,43.30
2019-02-04T02:00:34.146Z,42.70
2019-02-04T02:01:34.112Z,37.20
2019-02-04T02:02:34.045Z,36.80
2019-02-04T02:03:33.998Z,40.70
2019-02-04T02:04:33.956Z,43.90
2019-02-04T02:05:33.941Z,41.60
2019-02-04T02:06:33.853Z,42.30
2019-02-04T02:07:33.814Z,41.00
2019-02-04T02:08:33.759Z,42.50
2019-02-04T02:09:33.714Z,43.20
2019-02-04T02:10:33.664Z,44.80
2019-02-04T02:11:33.631Z,42.70
2019-02-04T02:12:33.555Z,42.50
2019-02-04T02:13:33.510Z,42.60
2019-02-04T02:14:33.466Z,42.00
2019-02-04T02:15:33.424Z,39.80
2019-02-04T02:16:33.404Z,40.00
2019-02-04T02:17:33.354Z,41.60
2019-02-04T02:18:33.295Z,42.60
2019-02-04T02:19:33.226Z,41.10
2019-02-04T02:20:33.175Z,41.50
2019-02-04T02:21:33.165Z,42.80
2019-02-04T02:22:33.094Z,41.30
2019-02-04T02:23:33.037Z,42.70
2019-02-04T02:24:32.986Z,41.80
2019-02-04T02:25:32.935Z,40.30
2019-02-04T02:26:32.917Z,40.90
2019-02-04T02:27:32.853Z,42.40
2019-02-04T02:28:32.797Z,41.10
2019-02-04T02:29:32.751Z,40.90
2019-02-04T02:30:32.705Z,40.80
2019-02-04T02:31:32.641Z,42.40
2019-02-04T02:32:32.616Z,38.90
2019-02-04T02:33:32.553Z,41.60
2019-02-04T02:34:32.512Z,41.30
2019-02-04T02:35:32.463Z,42.10
2019-02-04T02:36:32.440Z,40.90
2019-02-04T02:37:32.354Z,40.30
2019-02-04T02:38:32.311Z,39.70
2019-02-04T02:39:32.278Z,41.50
2019-02-04T02:40:32.218Z,40.00
2019-02-04T02:41:32.200Z,39.40
2019-02-04T02:42:32.123Z,39.90
2019-02-04T02:43:32.073Z,40.90
2019-02-04T02:44:32.015Z,41.40
2019-02-04T02:45:31.973Z,39.80
2019-02-04T02:46:31.923Z,40.40
2019-02-04T02:47:38.292Z,40.00
2019-02-04T02:48:31.830Z,40.00
2019-02-04T02:49:31.784Z,39.10
2019-02-04T02:50:31.743Z,39.90
2019-02-04T02:51:31.705Z,39.60
2019-02-04T02:52:31.635Z,40.10
2019-02-04T02:53:31.588Z,41.10
2019-02-04T02:54:31.573Z,39.70
2019-02-04T02:55:31.491Z,39.60
2019-02-04T02:56:31.443Z,38.70
2019-02-04T02:57:31.394Z,40.50
2019-02-04T02:58:31.346Z,39.50
2019-02-04T02:59:31.323Z,39.60
2019-02-04T03:00:31.269Z,39.20
2019-02-04T03:01:31.214Z,38.80
2019-02-04T03:02:31.165Z,37.90
2019-02-04T03:03:31.107Z,37.90
2019-02-04T03:04:31.081Z,37.60
2019-02-04T03:05:31.003Z,37.90
2019-02-04T03:06:30.960Z,37.50
2019-02-04T03:07:30.946Z,37.70
2019-02-04T03:08:30.872Z,37.60
2019-02-04T03:09:30.814Z,36.70
2019-02-04T03:10:30.768Z,37.40
2019-02-04T03:11:30.722Z,36.40
2019-02-04T03:12:30.673Z,37.50
2019-02-04T03:13:30.656Z,37.60
2019-02-04T03:14:30.586Z,37.50
2019-02-04T03:15:30.520Z,37.50
2019-02-04T03:16:30.477Z,37.10
2019-02-04T03:19:09.687Z,37.80
2019-02-04T03:20:17.887Z,37.60
2019-02-04T03:21:18.901Z,36.90
2019-02-04T03:22:18.949Z,36.30
2019-02-04T03:23:19.491Z,36.40
2019-02-04T03:24:18.034Z,36.50
2019-02-04T03:25:09.374Z,37.30
2019-02-04T03:26:09.316Z,37.40
2019-02-04T03:27:09.267Z,36.60
2019-02-04T03:28:09.215Z,37.70
2019-02-04T03:29:18.062Z,36.40
2019-02-04T03:30:18.576Z,39.00
2019-02-04T03:31:18.104Z,38.50
2019-02-04T03:32:19.148Z,39.40
2019-02-04T03:33:16.724Z,38.60
2019-02-04T03:34:08.963Z,37.10
2019-02-04T03:35:08.887Z,38.20
2019-02-04T03:36:08.836Z,37.00
2019-02-04T03:37:08.782Z,37.40
2019-02-04T03:38:08.739Z,36.60
2019-02-04T03:39:08.720Z,36.00
2019-02-04T03:40:08.637Z,35.30
2019-02-04T03:41:08.597Z,34.90
2019-02-04T03:42:08.548Z,35.00
2019-02-04T03:43:08.510Z,34.90
2019-02-04T03:44:08.613Z,34.50
2019-02-04T03:45:08.398Z,34.30
2019-02-04T03:46:08.350Z,35.70
2019-02-04T03:47:08.304Z,33.70
2019-02-04T03:48:09.494Z,32.80
2019-02-04T03:49:08.230Z,33.90
2019-02-04T03:50:08.173Z,33.10
2019-02-04T03:51:08.103Z,31.90
2019-02-04T03:52:08.059Z,31.80
2019-02-04T03:53:08.008Z,31.30
2019-02-04T03:54:07.960Z,31.90
2019-02-04T03:55:07.940Z,32.00
2019-02-04T03:56:07.875Z,32.30
2019-02-04T03:57:07.853Z,33.10
2019-02-04T03:58:07.759Z,32.10
2019-02-04T03:59:07.712Z,31.90
2019-02-04T04:00:07.699Z,31.50
2019-02-04T04:01:07.634Z,32.10
2019-02-04T04:02:07.567Z,32.20
2019-02-04T04:03:07.534Z,32.00
2019-02-04T04:04:07.485Z,31.90
2019-02-04T04:05:07.457Z,32.10
2019-02-04T04:06:07.394Z,31.70
2019-02-04T04:07:07.345Z,31.30
2019-02-04T04:08:07.283Z,31.30
2019-02-04T04:09:07.233Z,30.50
2019-02-04T04:10:07.220Z,31.00
2019-02-04T04:11:07.138Z,31.90
2019-02-04T04:12:07.097Z,30.10
2019-02-04T04:13:07.070Z,30.60
2019-02-04T04:14:07.031Z,31.10
2019-02-04T04:15:06.973Z,30.70
2019-02-04T04:16:06.903Z,31.10
2019-02-04T04:17:06.845Z,31.40
2019-02-04T04:18:15.336Z,30.90
2019-02-04T04:19:06.764Z,30.90
2019-02-04T04:20:06.704Z,30.60
2019-02-04T04:21:06.654Z,31.20
2019-02-04T04:22:06.603Z,30.40
2019-02-04T04:23:06.584Z,31.10
2019-02-04T04:24:06.513Z,30.50
2019-02-04T04:25:06.471Z,30.70
2019-02-04T04:26:06.420Z,29.90
2019-02-04T04:27:06.369Z,31.60
2019-02-04T04:28:06.340Z,31.20
2019-02-04T04:29:06.285Z,31.40
2019-02-04T04:30:06.233Z,30.10
2019-02-04T04:31:06.174Z,30.20
2019-02-04T04:32:06.134Z,29.70
2019-02-04T04:33:06.143Z,29.80
2019-02-04T04:34:06.041Z,30.50
2019-02-04T04:35:05.980Z,30.30
2019-02-04T04:36:05.952Z,30.80
2019-02-04T04:37:05.897Z,30.20
2019-02-04T04:38:05.900Z,29.70
2019-02-04T04:39:05.792Z,30.20
2019-02-04T04:40:05.740Z,28.90
2019-02-04T04:41:05.697Z,28.30
2019-02-04T04:42:05.682Z,28.40
2019-02-04T04:43:05.601Z,29.00
2019-02-04T04:44:05.550Z,27.70
2019-02-04T04:45:05.541Z,29.10
2019-02-04T04:46:05.458Z,28.70
2019-02-04T04:47:05.406Z,28.30
2019-02-04T04:48:05.348Z,27.20
2019-02-04T04:49:05.299Z,28.10
2019-02-04T04:50:05.270Z,27.90
2019-02-04T04:51:05.244Z,27.30
2019-02-04T04:52:05.161Z,27.40
2019-02-04T04:53:05.116Z,26.90
2019-02-04T04:54:05.067Z,28.70
2019-02-04T04:55:05.013Z,27.90
2019-02-04T04:56:04.998Z,28.00
2019-02-04T04:57:04.940Z,28.80
2019-02-04T04:58:04.894Z,29.00
2019-02-04T04:59:04.833Z,28.50
2019-02-04T05:00:04.765Z,26.30
2019-02-04T05:01:04.755Z,28.00
2019-02-04T05:02:04.673Z,28.80
2019-02-04T05:03:04.663Z,27.90
2019-02-04T05:04:04.585Z,28.60
2019-02-04T05:05:04.540Z,28.60
2019-02-04T05:06:04.504Z,28.10
2019-02-04T05:07:04.445Z,28.50
2019-02-04T05:08:04.401Z,27.20
2019-02-04T05:09:04.351Z,27.50
2019-02-04T05:10:04.324Z,28.40
2019-02-04T05:11:04.282Z,28.00
2019-02-04T05:12:04.190Z,27.90
2019-02-04T05:13:04.141Z,28.10
2019-02-04T05:14:04.101Z,27.30
2019-02-04T05:15:04.060Z,28.10
2019-02-04T05:16:04.006Z,27.60
2019-02-04T05:17:03.982Z,26.70
2019-02-04T05:18:03.906Z,26.90
2019-02-04T05:19:03.863Z,27.20
2019-02-04T05:20:03.809Z,27.10
2019-02-04T05:21:03.759Z,26.70
2019-02-04T05:22:03.750Z,26.00
2019-02-04T05:23:03.676Z,27.60
2019-02-04T05:24:03.617Z,26.80
2019-02-04T05:25:03.565Z,27.50
2019-02-04T05:26:03.543Z,26.10
2019-02-04T05:27:03.467Z,25.10
2019-02-04T05:28:03.449Z,25.50
2019-02-04T05:29:03.393Z,26.10
2019-02-04T05:30:03.335Z,26.20
2019-02-04T05:31:03.312Z,25.50
2019-02-04T05:32:03.231Z,25.30
2019-02-04T05:33:03.191Z,26.60
2019-02-04T05:34:03.140Z,25.30
2019-02-04T05:35:03.083Z,26.00
2019-02-04T05:36:03.071Z,25.10
2019-02-04T05:37:02.997Z,25.60
2019-02-04T05:38:02.947Z,26.10
2019-02-04T05:39:02.927Z,26.70
2019-02-04T05:40:02.851Z,27.40
2019-02-04T05:41:02.812Z,25.50
2019-02-04T05:42:02.749Z,25.80
2019-02-04T05:43:02.708Z,27.10
2019-02-04T05:44:02.669Z,26.10
2019-02-04T05:45:02.605Z,27.20
2019-02-04T05:46:02.551Z,27.10
2019-02-04T05:47:02.515Z,26.90
2019-02-04T05:48:02.471Z,26.20
2019-02-04T05:49:02.442Z,26.30
2019-02-04T05:50:02.370Z,26.30
2019-02-04T05:51:02.318Z,26.40
2019-02-04T05:52:02.271Z,26.90
2019-02-04T05:53:02.225Z,26.50
2019-02-04T05:54:02.172Z,26.30
2019-02-04T05:55:02.157Z,25.30
2019-02-04T05:56:02.081Z,25.80
2019-02-04T05:57:02.029Z,25.50
2019-02-04T05:58:01.977Z,26.20
2019-02-04T05:59:01.923Z,25.10
2019-02-04T06:00:01.905Z,25.40
2019-02-04T06:01:01.831Z,25.40
2019-02-04T06:02:01.784Z,25.80
2019-02-04T06:03:01.735Z,26.70
2019-02-04T06:04:01.674Z,25.90
2019-02-04T06:05:01.662Z,26.20
2019-02-04T06:06:01.622Z,25.80
2019-02-04T06:07:01.555Z,26.20
2019-02-04T06:08:01.499Z,26.00
2019-02-04T06:09:01.453Z,24.90
2019-02-04T06:10:01.411Z,25.10
2019-02-04T06:11:01.373Z,25.50
2019-02-04T06:12:01.307Z,25.10
2019-02-04T06:13:01.258Z,25.90
2019-02-04T06:14:01.221Z,25.10
2019-02-04T06:15:01.160Z,25.50
2019-02-04T06:16:01.131Z,25.30
2019-02-04T06:17:01.055Z,25.40
2019-02-04T06:18:01.038Z,24.90
2019-02-04T06:19:01.281Z,25.40
2019-02-04T06:20:02.991Z,24.80
2019-02-04T06:21:00.889Z,25.30
2019-02-04T06:22:00.833Z,24.50
2019-02-04T06:23:00.819Z,25.60
2019-02-04T06:24:00.710Z,25.10
2019-02-04T06:25:00.674Z,26.10
2019-02-04T06:26:00.629Z,25.80
2019-02-04T06:27:00.587Z,25.40
2019-02-04T06:28:00.562Z,25.90
2019-02-04T06:29:00.491Z,25.30
2019-02-04T06:30:00.434Z,25.40
2019-02-04T06:31:00.379Z,25.10
2019-02-04T06:32:00.367Z,25.00
2019-02-04T06:33:00.322Z,25.80
2019-02-04T06:34:00.239Z,25.40
2019-02-04T06:35:00.206Z,25.20
2019-02-04T06:36:00.154Z,25.80
2019-02-04T06:37:00.113Z,25.00
2019-02-04T06:38:00.088Z,24.50
2019-02-04T06:39:00.001Z,24.00
2019-02-04T06:39:59.952Z,24.30
2019-02-04T06:40:59.913Z,24.60
2019-02-04T06:41:59.898Z,24.40
2019-02-04T06:42:59.838Z,24.50
2019-02-04T06:43:59.780Z,24.90
2019-02-04T06:44:59.706Z,24.90
2019-02-04T06:45:59.696Z,24.90
2019-02-04T06:46:59.625Z,24.60
2019-02-04T06:47:59.582Z,25.00
2019-02-04T06:48:59.508Z,24.90
2019-02-04T06:49:59.471Z,24.00
2019-02-04T06:50:59.435Z,24.00
2019-02-04T06:51:59.371Z,24.80
2019-02-04T06:52:59.356Z,25.30
2019-02-04T06:53:59.311Z,24.90
2019-02-04T06:54:59.245Z,24.80
2019-02-04T06:55:59.201Z,24.30
2019-02-04T06:56:59.142Z,23.60
2019-02-04T06:57:59.096Z,22.80
2019-02-04T06:58:59.080Z,23.60
2019-02-04T06:59:58.990Z,22.70
2019-02-04T07:00:58.957Z,22.70
2019-02-04T07:01:58.893Z,22.80
2019-02-04T07:02:58.870Z,22.10
2019-02-04T07:03:58.792Z,23.10
2019-02-04T07:04:58.791Z,23.50
2019-02-04T07:05:58.718Z,23.90
2019-02-04T07:06:58.684Z,22.50
2019-02-04T07:07:58.592Z,23.50
2019-02-04T07:08:58.694Z,23.00
2019-02-04T07:09:58.516Z,22.00
2019-02-04T07:10:58.454Z,22.90
2019-02-04T07:11:58.416Z,22.00
2019-02-04T07:12:58.376Z,23.50
2019-02-04T07:13:58.328Z,21.40
2019-02-04T07:14:58.282Z,20.50
2019-02-04T07:15:58.224Z,20.60
2019-02-04T07:16:58.160Z,19.80
2019-02-04T07:18:01.810Z,21.20
2019-02-04T07:18:58.072Z,21.10
2019-02-04T07:19:58.062Z,20.50
2019-02-04T07:20:57.971Z,20.30
2019-02-04T07:21:57.921Z,19.40
2019-02-04T07:22:57.876Z,21.30
2019-02-04T07:23:57.843Z,19.80
2019-02-04T07:24:57.778Z,20.40
2019-02-04T07:25:57.759Z,20.50
2019-02-04T07:26:57.714Z,19.90
2019-02-04T07:27:57.640Z,20.10
2019-02-04T07:28:57.586Z,20.70
2019-02-04T07:29:57.563Z,20.00
2019-02-04T07:30:57.524Z,20.10
2019-02-04T07:31:57.432Z,19.90
2019-02-04T07:32:57.409Z,19.90
2019-02-04T07:33:57.356Z,18.90
2019-02-04T07:34:57.304Z,20.70
2019-02-04T07:35:57.289Z,19.60
2019-02-04T07:36:57.321Z,20.00
2019-02-04T07:37:57.176Z,19.60
2019-02-04T07:38:57.162Z,20.10
2019-02-04T07:39:57.076Z,19.60
2019-02-04T07:40:57.035Z,20.50
2019-02-04T07:41:56.968Z,19.20
2019-02-04T07:42:57.150Z,19.30
2019-02-04T07:43:56.963Z,19.30
2019-02-04T07:44:56.847Z,20.60
2019-02-04T07:45:56.778Z,19.60
2019-02-04T07:46:56.762Z,20.30
2019-02-04T07:47:56.704Z,20.30
2019-02-04T07:48:56.650Z,19.40
2019-02-04T07:49:56.668Z,18.90
2019-02-04T07:50:56.601Z,19.10
2019-02-04T07:51:56.551Z,19.10
2019-02-04T07:52:56.561Z,18.70
2019-02-04T07:53:56.377Z,18.80
2019-02-04T07:54:56.392Z,18.80
2019-02-04T07:55:56.339Z,17.70
2019-02-04T07:56:56.254Z,19.30
2019-02-04T07:57:57.293Z,18.80
2019-02-04T07:58:56.170Z,18.20
2019-02-04T07:59:56.114Z,18.90
2019-02-04T08:00:56.054Z,18.50
2019-02-04T08:01:56.038Z,18.00
2019-02-04T08:02:55.996Z,18.60
2019-02-04T08:03:55.938Z,17.60
2019-02-04T08:04:55.879Z,19.20
2019-02-04T08:05:55.948Z,18.70
2019-02-04T08:06:55.813Z,18.60
2019-02-04T08:07:55.739Z,18.20
2019-02-04T08:08:55.708Z,18.00
2019-02-04T08:09:55.642Z,17.90
2019-02-04T08:10:55.623Z,18.60
2019-02-04T08:11:55.539Z,17.80
2019-02-04T08:13:01.568Z,18.50
2019-02-04T08:13:55.443Z,17.60
2019-02-04T08:14:55.394Z,17.70
2019-02-04T08:15:55.353Z,17.60
2019-02-04T08:16:55.301Z,18.00
2019-02-04T08:17:55.278Z,17.60
2019-02-04T08:18:55.207Z,18.20
2019-02-04T08:19:55.148Z,16.60
2019-02-04T08:20:55.112Z,17.70
2019-02-04T08:21:55.085Z,18.10
2019-02-04T08:22:55.045Z,17.60
2019-02-04T08:23:54.977Z,17.10
2019-02-04T08:24:54.915Z,17.50
2019-02-04T08:25:54.921Z,16.50
2019-02-04T08:26:54.831Z,17.50
2019-02-04T08:27:54.812Z,17.60
2019-02-04T08:28:54.721Z,18.10
2019-02-04T08:29:54.768Z,17.60
2019-02-04T08:30:54.784Z,16.50
2019-02-04T08:31:54.768Z,17.30
2019-02-04T08:32:54.580Z,17.00
2019-02-04T08:33:54.495Z,16.40
2019-02-04T08:34:54.440Z,16.50
2019-02-04T08:35:54.398Z,16.70
2019-02-04T08:36:54.361Z,16.10
2019-02-04T08:37:54.344Z,15.90
2019-02-04T08:38:54.300Z,16.50
2019-02-04T08:39:54.222Z,16.20
2019-02-04T08:40:54.159Z,16.10
2019-02-04T08:41:54.154Z,16.20
2019-02-04T08:42:54.072Z,15.70
2019-02-04T08:43:54.086Z,16.90
2019-02-04T08:44:53.994Z,16.10
2019-02-04T08:45:53.962Z,15.80
2019-02-04T08:46:53.900Z,16.20
2019-02-04T08:47:53.874Z,16.60
2019-02-04T08:48:53.821Z,15.80
2019-02-04T08:49:58.375Z,15.80
2019-02-04T08:50:53.745Z,15.70
2019-02-04T08:51:53.658Z,15.90
2019-02-04T08:52:53.627Z,15.80
2019-02-04T08:53:53.607Z,15.60
2019-02-04T08:54:53.524Z,16.20
2019-02-04T08:55:53.533Z,15.80
2019-02-04T08:56:53.490Z,15.40
2019-02-04T08:57:53.411Z,15.30
2019-02-04T08:58:53.344Z,15.60
2019-02-04T08:59:53.307Z,15.60
2019-02-04T09:00:53.407Z,14.80
2019-02-04T09:01:53.434Z,15.60
2019-02-04T09:02:53.154Z,16.30
2019-02-04T09:03:53.174Z,15.20
2019-02-04T09:04:53.069Z,14.90
2019-02-04T09:05:53.022Z,15.80
2019-02-04T09:06:53.257Z,14.80
2019-02-04T09:07:52.947Z,15.20
2019-02-04T09:08:53.343Z,14.50
2019-02-04T09:09:52.851Z,14.50
2019-02-04T09:10:52.945Z,15.40
2019-02-04T09:11:52.810Z,15.40
2019-02-04T09:12:52.747Z,15.20
2019-02-04T09:13:52.752Z,15.70
2019-02-04T09:14:52.676Z,15.30
2019-02-04T09:15:52.569Z,14.70
2019-02-04T09:16:52.647Z,15.30
2019-02-04T09:17:52.500Z,14.70
2019-02-04T09:18:52.460Z,14.90
2019-02-04T09:19:52.503Z,15.00
2019-02-04T09:20:52.428Z,14.90
2019-02-04T09:21:52.378Z,15.10
2019-02-04T09:22:52.257Z,15.00
2019-02-04T09:23:52.226Z,15.10
2019-02-04T09:24:52.161Z,13.80
2019-02-04T09:25:52.111Z,14.50
2019-02-04T09:26:52.085Z,14.50
2019-02-04T09:27:52.033Z,15.00
2019-02-04T09:28:51.981Z,14.70
2019-02-04T09:29:51.951Z,15.60
2019-02-04T09:30:51.917Z,14.80
2019-02-04T09:31:51.869Z,14.00
2019-02-04T09:32:51.774Z,13.90
2019-02-04T09:33:51.753Z,14.90
2019-02-04T09:34:51.702Z,14.40
2019-02-04T09:35:51.659Z,15.30
2019-02-04T09:36:51.653Z,14.20
2019-02-04T09:37:51.580Z,14.40
2019-02-04T09:38:51.500Z,14.50
2019-02-04T09:39:51.473Z,14.50
2019-02-04T09:40:51.439Z,15.20
2019-02-04T09:41:51.409Z,14.10
2019-02-04T09:42:51.326Z,14.50
2019-02-04T09:43:51.278Z,14.20
2019-02-04T09:44:51.235Z,14.00
2019-02-04T09:45:51.233Z,15.00
2019-02-04T09:46:51.198Z,14.70
2019-02-04T09:47:51.112Z,13.60
2019-02-04T09:48:51.079Z,14.70
2019-02-04T09:49:51.034Z,13.90
2019-02-04T09:50:51.030Z,14.00
2019-02-04T09:51:50.941Z,14.50
2019-02-04T09:52:50.876Z,14.30
2019-02-04T09:53:50.844Z,14.40
2019-02-04T09:54:50.791Z,13.60
2019-02-04T09:55:50.752Z,14.70
2019-02-04T09:56:50.715Z,13.90
2019-02-04T09:57:50.672Z,13.50
2019-02-04T09:58:50.583Z,13.40
2019-02-04T09:59:50.638Z,14.10
2019-02-04T10:00:50.500Z,14.30
2019-02-04T10:01:50.452Z,13.80
2019-02-04T10:02:50.447Z,14.00
2019-02-04T10:03:50.366Z,14.10
2019-02-04T10:04:50.334Z,13.00
2019-02-04T10:05:50.312Z,13.60
2019-02-04T10:06:50.268Z,12.60
2019-02-04T10:07:50.236Z,12.90
2019-02-04T10:08:50.152Z,13.00
2019-02-04T10:09:50.088Z,13.20
2019-02-04T10:10:50.050Z,13.80
2019-02-04T10:11:50.021Z,13.40
2019-02-04T10:12:52.504Z,12.80
2019-02-04T10:13:49.933Z,13.20
2019-02-04T10:14:49.907Z,12.70
2019-02-04T10:15:49.840Z,13.20
2019-02-04T10:16:49.798Z,12.60
2019-02-04T10:17:49.819Z,12.40
2019-02-04T10:18:49.728Z,12.90
2019-02-04T10:19:49.662Z,13.20
2019-02-04T10:20:49.653Z,11.70
2019-02-04T10:21:49.560Z,13.00
2019-02-04T10:22:49.572Z,12.60
2019-02-04T10:23:49.482Z,12.70
2019-02-04T10:24:49.436Z,12.60
2019-02-04T10:25:49.378Z,12.50
2019-02-04T10:26:49.341Z,11.80
2019-02-04T10:27:49.321Z,11.60
2019-02-04T10:28:49.313Z,12.10
2019-02-04T10:29:49.209Z,11.30
2019-02-04T10:30:49.194Z,11.70
2019-02-04T10:31:49.124Z,12.10
2019-02-04T10:32:49.061Z,11.80
2019-02-04T10:33:49.044Z,11.70
2019-02-04T10:34:49.207Z,11.70
2019-02-04T10:35:48.950Z,11.80
2019-02-04T10:36:48.951Z,12.10
2019-02-04T10:37:48.858Z,11.30
2019-02-04T10:38:48.819Z,12.00
2019-02-04T10:39:48.842Z,11.80
2019-02-04T10:40:48.751Z,11.10
2019-02-04T10:41:48.711Z,11.70
2019-02-04T10:42:48.642Z,10.70
2019-02-04T10:43:48.666Z,11.30
2019-02-04T10:44:48.571Z,11.60
2019-02-04T10:45:48.537Z,11.60
2019-02-04T10:46:48.509Z,11.10
2019-02-04T10:47:48.409Z,10.80
2019-02-04T10:48:48.396Z,11.30
2019-02-04T10:49:48.329Z,11.40
2019-02-04T10:50:48.306Z,10.80
2019-02-04T10:51:48.299Z,11.00
2019-02-04T10:52:48.211Z,11.00
2019-02-04T10:53:48.161Z,10.70
2019-02-04T10:54:48.175Z,10.00
2019-02-04T10:55:48.105Z,10.60
2019-02-04T10:56:48.055Z,10.80
2019-02-04T10:57:47.964Z,11.00
2019-02-04T10:58:47.914Z,10.80
2019-02-04T10:59:47.920Z,10.60
2019-02-04T11:00:47.877Z,10.70
2019-02-04T11:01:47.843Z,10.50
2019-02-04T11:02:47.813Z,10.80
2019-02-04T11:03:47.717Z,10.80
2019-02-04T11:04:47.702Z,10.80
2019-02-04T11:05:47.624Z,10.60
2019-02-04T11:06:47.591Z,11.70
2019-02-04T11:07:47.602Z,11.10
2019-02-04T11:08:47.535Z,11.00
2019-02-04T11:09:47.491Z,10.30
2019-02-04T11:10:47.466Z,10.20
2019-02-04T11:11:47.383Z,10.60
2019-02-04T11:12:47.322Z,10.60
2019-02-04T11:13:47.344Z,10.60
2019-02-04T11:14:47.230Z,10.30
2019-02-04T11:15:47.187Z,10.50
2019-02-04T11:16:47.189Z,10.60
2019-02-04T11:17:47.137Z,10.30
2019-02-04T11:18:47.106Z,10.20
2019-02-04T11:19:47.154Z,10.20
2019-02-04T11:20:57.557Z,10.50
2019-02-04T11:21:46.955Z,10.50
2019-02-04T11:22:46.892Z,9.80
2019-02-04T11:23:46.871Z,9.90
2019-02-04T11:24:46.851Z,9.40
2019-02-04T11:25:46.856Z,10.00
2019-02-04T11:26:46.770Z,9.90
2019-02-04T11:27:46.695Z,9.90
2019-02-04T11:28:46.604Z,9.50
2019-02-04T11:29:46.607Z,9.40
2019-02-04T11:30:46.553Z,8.70
2019-02-04T11:31:46.504Z,8.90
2019-02-04T11:32:46.505Z,8.70
2019-02-04T11:33:46.431Z,9.20
2019-02-04T11:34:49.097Z,9.10
2019-02-04T11:35:46.358Z,8.60
2019-02-04T11:36:46.319Z,9.50
2019-02-04T11:37:46.274Z,8.70
2019-02-04T11:38:46.240Z,9.00
2019-02-04T11:39:46.225Z,8.90
2019-02-04T11:40:46.156Z,9.10
2019-02-04T11:41:46.089Z,8.60
2019-02-04T11:42:46.023Z,8.90
2019-02-04T11:43:46.016Z,8.60
2019-02-04T11:44:45.987Z,8.70
2019-02-04T11:45:46.037Z,8.90
2019-02-04T11:46:45.895Z,8.70
2019-02-04T11:47:45.855Z,8.30
2019-02-04T11:48:45.767Z,8.60
2019-02-04T11:49:45.762Z,8.80
2019-02-04T11:50:45.678Z,8.80
2019-02-04T11:51:45.650Z,8.30
2019-02-04T11:52:45.608Z,8.20
2019-02-04T11:53:45.574Z,8.10
2019-02-04T11:54:45.545Z,8.20
2019-02-04T11:55:45.472Z,7.90
2019-02-04T11:56:45.429Z,8.10
2019-02-04T11:57:46.164Z,8.40
2019-02-04T11:58:45.331Z,8.20
2019-02-04T11:59:45.303Z,8.00
2019-02-04T12:00:45.247Z,8.00
2019-02-04T12:01:45.215Z,8.40
2019-02-04T12:02:45.194Z,8.10
2019-02-04T12:03:45.132Z,8.10
2019-02-04T12:04:45.096Z,7.70
2019-02-04T12:05:45.057Z,7.70
2019-02-04T12:06:45.003Z,7.50
2019-02-04T12:07:44.985Z,7.10
2019-02-04T12:08:44.938Z,7.60
2019-02-04T12:09:44.915Z,7.00
2019-02-04T12:10:44.878Z,7.60
2019-02-04T12:11:44.838Z,7.20
2019-02-04T12:12:44.803Z,7.30
2019-02-04T12:13:44.725Z,7.20
2019-02-04T12:14:44.662Z,7.50
2019-02-04T12:15:44.659Z,7.10
2019-02-04T12:16:44.604Z,7.20
2019-02-04T12:17:44.532Z,6.90
2019-02-04T12:18:44.507Z,6.80
2019-02-04T12:19:44.481Z,7.10
2019-02-04T12:20:44.403Z,6.30
2019-02-04T12:21:44.389Z,7.20
2019-02-04T12:22:44.341Z,6.90
2019-02-04T12:23:44.292Z,6.40
2019-02-04T12:24:44.280Z,6.20
2019-02-04T12:25:44.198Z,6.90
2019-02-04T12:26:44.170Z,7.20
2019-02-04T12:27:44.133Z,6.70
2019-02-04T12:28:44.202Z,6.80
2019-02-04T12:29:44.132Z,6.60
2019-02-04T12:30:44.020Z,6.80
2019-02-04T12:31:43.941Z,7.00
2019-02-04T12:32:43.934Z,6.40
2019-02-04T12:33:43.994Z,6.70
2019-02-04T12:34:43.820Z,6.10
2019-02-04T12:35:43.799Z,6.20
2019-02-04T12:36:43.759Z,6.50
2019-02-04T12:37:43.746Z,6.60
2019-02-04T12:38:43.656Z,6.10
2019-02-04T12:39:43.614Z,12.00
2019-02-04T12:40:43.599Z,6.50
2019-02-04T12:41:43.569Z,6.10
2019-02-04T12:42:43.544Z,6.20
2019-02-04T12:43:43.439Z,6.20
2019-02-04T12:44:43.414Z,6.10
2019-02-04T12:45:43.369Z,5.80
2019-02-04T12:46:43.330Z,5.90
2019-02-04T12:47:43.312Z,5.30
2019-02-04T12:48:43.260Z,5.80
2019-02-04T12:49:43.266Z,5.80
2019-02-04T12:50:43.143Z,5.40
2019-02-04T12:51:43.139Z,5.60
2019-02-04T12:52:43.083Z,5.60
2019-02-04T12:53:43.044Z,6.00
2019-02-04T12:54:43.027Z,5.80
2019-02-04T12:55:43.669Z,5.60
2019-02-04T12:56:42.903Z,5.30